createdAt,value
2023-05-15T08:27:09.091Z,51.37
2023-05-15T08:28:09.237Z,51.27
2023-05-15T08:29:09.501Z,51.27
2023-05-15T08:30:09.753Z,51.27
2023-05-15T08:31:10.064Z,51.27
2023-05-15T08:32:10.189Z,51.27
2023-05-15T08:33:10.472Z,51.27
2023-05-15T08:34:10.648Z,51.17
2023-05-15T08:35:10.890Z,51.17
2023-05-15T08:36:11.155Z,51.07
2023-05-15T08:37:11.425Z,51.17
2023-05-15T08:38:11.629Z,51.07
2023-05-15T08:39:11.866Z,51.07
2023-05-15T08:40:12.099Z,51.07
2023-05-15T08:41:12.315Z,51.07
2023-05-15T08:42:12.633Z,51.07
2023-05-15T08:43:12.832Z,50.96
2023-05-15T08:44:13.904Z,50.96
2023-05-15T08:45:13.198Z,50.96
2023-05-15T08:46:13.476Z,50.94
2023-05-15T08:47:13.730Z,50.94
2023-05-15T08:48:14.045Z,50.94
2023-05-15T08:49:14.131Z,50.84
2023-05-15T08:50:14.273Z,50.84
2023-05-15T08:51:14.646Z,50.84
2023-05-15T08:52:14.594Z,50.84
2023-05-15T08:53:14.857Z,50.74
2023-05-15T08:54:14.956Z,50.74
2023-05-15T08:55:15.244Z,50.74
2023-05-15T08:56:15.293Z,50.74
2023-05-15T08:57:15.534Z,50.74
2023-05-15T08:58:15.710Z,50.74
2023-05-15T08:59:15.952Z,51.54
2023-05-15T09:00:16.133Z,53.24
2023-05-15T09:01:16.417Z,54.94
2023-05-15T09:02:16.527Z,55.05
2023-05-15T09:03:16.934Z,54.64
2023-05-15T09:04:16.877Z,55.82
2023-05-15T09:05:17.126Z,56.62
2023-05-15T09:06:17.264Z,56.62
2023-05-15T09:07:17.417Z,57.12
2023-05-15T09:08:17.505Z,56.89
2023-05-15T09:09:17.753Z,56.99
2023-05-15T09:10:18.800Z,56.89
2023-05-15T09:11:18.099Z,56.79
2023-05-15T09:12:18.208Z,56.89
2023-05-15T09:13:18.454Z,56.20
2023-05-15T09:14:19.102Z,56.46
2023-05-15T09:15:18.705Z,55.97
2023-05-15T09:16:19.012Z,55.27
2023-05-15T09:17:19.081Z,55.07
2023-05-15T09:18:19.304Z,54.67
2023-05-15T09:19:19.618Z,53.77
2023-05-15T09:20:19.693Z,53.97
2023-05-15T09:21:19.924Z,53.94
2023-05-15T09:22:20.131Z,53.74
2023-05-15T09:23:20.356Z,53.44
2023-05-15T09:24:20.558Z,53.04
2023-05-15T09:25:22.682Z,52.74
2023-05-15T09:26:20.887Z,52.74
2023-05-15T09:27:21.111Z,51.75
2023-05-15T09:28:21.308Z,51.92
2023-05-15T09:29:21.542Z,52.42
2023-05-15T09:30:21.645Z,52.92
2023-05-15T09:31:21.917Z,53.92
2023-05-15T09:32:22.128Z,51.12
2023-05-15T09:33:22.234Z,53.59
2023-05-15T09:34:22.406Z,53.59
2023-05-15T09:35:22.958Z,52.00
2023-05-15T09:36:22.749Z,50.30
2023-05-15T09:37:22.995Z,49.62
2023-05-15T09:38:23.089Z,49.62
2023-05-15T09:39:23.315Z,49.44
2023-05-15T09:40:23.403Z,50.07
2023-05-15T09:41:23.617Z,50.20
2023-05-15T09:42:23.751Z,50.32
2023-05-15T09:43:23.947Z,50.52
2023-05-15T09:44:24.133Z,50.84
2023-05-15T09:45:24.695Z,51.17
2023-05-15T09:46:24.661Z,51.17
2023-05-15T09:47:24.869Z,51.29
2023-05-15T09:48:24.964Z,51.19
2023-05-15T09:49:25.060Z,51.51
2023-05-15T09:50:25.273Z,52.72
2023-05-15T09:51:25.505Z,54.45
2023-05-15T09:52:25.703Z,55.75
2023-05-15T09:53:25.914Z,57.66
2023-05-15T09:54:26.023Z,57.56
2023-05-15T09:55:26.421Z,57.76
2023-05-15T09:56:26.452Z,57.66
2023-05-15T09:57:26.549Z,57.96
2023-05-15T09:58:26.686Z,57.73
2023-05-15T09:59:26.892Z,58.03
2023-05-15T10:00:27.204Z,57.23
2023-05-15T10:01:27.373Z,56.80
2023-05-15T10:02:27.516Z,56.10
2023-05-15T10:03:27.643Z,56.30
2023-05-15T10:04:27.740Z,56.17
2023-05-15T10:05:42.046Z,55.77
2023-05-15T10:06:29.163Z,56.55
2023-05-15T10:07:28.355Z,56.74
2023-05-15T10:08:28.587Z,57.55
2023-05-15T10:09:28.805Z,57.72
2023-05-15T10:10:28.909Z,57.12
2023-05-15T10:11:29.151Z,56.32
